createdAt,value
2019-05-05T00:02:50.450Z,1.00
2019-05-05T00:06:56.405Z,1.00
2019-05-05T00:11:15.260Z,1.00
2019-05-05T00:15:22.349Z,1.10
2019-05-05T00:19:32.921Z,1.10
2019-05-05T00:23:36.005Z,1.10
2019-05-05T00:27:41.953Z,1.00
2019-05-05T00:31:47.926Z,0.90
2019-05-05T00:35:54.654Z,0.90
2019-05-05T00:40:00.638Z,0.80
2019-05-05T00:44:06.612Z,0.70
2019-05-05T00:48:16.972Z,0.60
2019-05-05T00:52:24.594Z,0.50
2019-05-05T00:56:30.650Z,0.50
2019-05-05T01:00:45.357Z,0.50
2019-05-05T01:04:55.106Z,0.50
2019-05-05T01:09:01.320Z,0.60
2019-05-05T01:13:09.490Z,0.80
2019-05-05T01:17:15.454Z,0.90
2019-05-05T01:21:21.429Z,1.00
2019-05-05T01:25:27.449Z,1.10
2019-05-05T01:29:34.645Z,1.10
2019-05-05T01:33:44.923Z,1.10
2019-05-05T01:37:54.396Z,1.00
2019-05-05T01:42:02.338Z,0.90
2019-05-05T01:46:08.746Z,0.90
2019-05-05T01:50:20.668Z,0.80
2019-05-05T01:54:22.301Z,0.80
2019-05-05T01:58:28.542Z,0.80
2019-05-05T02:02:34.519Z,0.80
2019-05-05T02:06:40.658Z,0.80
2019-05-05T02:10:46.707Z,1.00
2019-05-05T02:14:54.952Z,1.20
2019-05-05T02:19:00.246Z,1.40
2019-05-05T02:23:06.358Z,1.50
2019-05-05T02:27:14.386Z,1.70
2019-05-05T02:31:36.034Z,1.80
2019-05-05T02:35:42.491Z,1.80
2019-05-05T02:39:57.693Z,2.00
2019-05-05T02:43:56.555Z,2.00
2019-05-05T02:48:05.904Z,2.00
2019-05-05T02:52:15.109Z,2.10
2019-05-05T02:56:25.793Z,2.10
2019-05-05T03:00:34.467Z,2.10
2019-05-05T03:04:41.561Z,2.10
2019-05-05T03:08:48.369Z,2.10
2019-05-05T03:12:54.738Z,2.10
2019-05-05T03:17:04.216Z,2.10
2019-05-05T03:21:10.414Z,2.20
2019-05-05T03:25:16.741Z,2.20
2019-05-05T03:29:24.380Z,2.20
2019-05-05T03:33:30.524Z,2.20
2019-05-05T03:37:36.762Z,2.20
2019-05-05T03:41:44.453Z,2.20
2019-05-05T03:45:53.814Z,2.20
2019-05-05T03:50:00.315Z,2.20
2019-05-05T03:54:07.221Z,2.20
2019-05-05T03:58:14.657Z,2.10
2019-05-05T04:02:23.479Z,2.10
2019-05-05T04:06:36.779Z,2.10
2019-05-05T04:10:43.938Z,2.10
2019-05-05T04:14:51.405Z,2.20
2019-05-05T04:18:59.017Z,2.20
2019-05-05T04:23:04.986Z,2.20
2019-05-05T04:27:10.938Z,2.10
2019-05-05T04:31:16.903Z,2.10
2019-05-05T04:35:24.654Z,2.20
2019-05-05T04:39:30.481Z,2.20
2019-05-05T04:43:36.454Z,2.30
2019-05-05T04:47:49.819Z,2.30
2019-05-05T04:52:04.109Z,2.30
2019-05-05T04:56:10.212Z,2.40
2019-05-05T05:00:16.526Z,2.60
2019-05-05T05:04:26.833Z,2.90
2019-05-05T05:08:33.790Z,3.10
2019-05-05T05:12:39.854Z,3.10
2019-05-05T05:16:46.502Z,3.00
2019-05-05T05:20:54.639Z,3.10
2019-05-05T05:25:00.061Z,3.30
2019-05-05T05:29:06.033Z,3.40
2019-05-05T05:33:12.001Z,3.70
2019-05-05T05:37:17.965Z,3.90
2019-05-05T05:41:37.605Z,4.10
2019-05-05T05:45:47.873Z,4.30
2019-05-05T05:49:58.187Z,4.40
2019-05-05T05:54:04.190Z,4.50
2019-05-05T05:58:10.428Z,4.70
2019-05-05T06:02:16.714Z,4.90
2019-05-05T06:06:24.142Z,5.20
2019-05-05T06:10:30.555Z,5.60
2019-05-05T06:14:36.793Z,5.50
2019-05-05T06:18:43.706Z,5.40
2019-05-05T06:22:53.571Z,5.50
2019-05-05T06:27:00.323Z,5.50
2019-05-05T06:31:06.709Z,6.10
2019-05-05T06:35:13.992Z,6.50
2019-05-05T06:39:20.649Z,7.10
2019-05-05T06:43:44.193Z,8.60
2019-05-05T06:47:53.707Z,10.10
2019-05-05T06:52:00.665Z,11.30
2019-05-05T06:56:06.921Z,11.70
2019-05-05T07:00:13.984Z,13.40
2019-05-05T07:04:20.322Z,13.90
2019-05-05T07:08:26.575Z,14.70
2019-05-05T07:12:34.711Z,13.30
2019-05-05T07:16:40.797Z,13.20
2019-05-05T07:20:47.670Z,15.00
2019-05-05T07:24:54.275Z,14.80
2019-05-05T07:29:04.636Z,13.90
2019-05-05T07:33:11.024Z,14.90
2019-05-05T07:37:17.269Z,15.40
2019-05-05T07:41:24.561Z,16.20
2019-05-05T07:45:30.800Z,16.10
2019-05-05T07:49:37.051Z,15.30
2019-05-05T07:53:44.261Z,17.50
2019-05-05T07:57:50.638Z,23.50
2019-05-05T08:01:56.862Z,24.80
2019-05-05T08:06:03.953Z,23.50
2019-05-05T08:10:10.929Z,21.10
2019-05-05T08:14:17.235Z,20.20
2019-05-05T08:18:34.626Z,21.60
2019-05-05T08:22:40.886Z,22.60
2019-05-05T08:27:04.977Z,21.80
2019-05-05T08:31:22.145Z,22.30
2019-05-05T08:35:28.423Z,25.50
2019-05-05T08:39:34.704Z,23.80
2019-05-05T08:43:40.934Z,20.40
2019-05-05T08:47:47.253Z,19.70
2019-05-05T08:51:54.732Z,21.70
2019-05-05T08:56:01.234Z,24.10
2019-05-05T09:00:08.916Z,22.50
2019-05-05T09:04:15.189Z,22.70
2019-05-05T09:08:21.449Z,25.60
2019-05-05T09:12:27.778Z,22.20
2019-05-05T09:16:34.009Z,19.60
2019-05-05T09:20:40.319Z,22.40
2019-05-05T09:24:50.905Z,26.50
2019-05-05T09:29:01.845Z,26.10
2019-05-05T09:33:08.258Z,23.80
2019-05-05T09:37:14.565Z,26.00
2019-05-05T09:41:20.810Z,27.00
2019-05-05T09:45:27.042Z,24.00
2019-05-05T09:49:33.916Z,20.00
2019-05-05T09:53:40.303Z,18.00
2019-05-05T09:57:46.555Z,21.10
2019-05-05T10:01:53.884Z,24.80
2019-05-05T10:06:00.179Z,26.80
2019-05-05T10:10:07.546Z,26.90
2019-05-05T10:14:14.355Z,23.70
2019-05-05T10:18:20.770Z,20.10
2019-05-05T10:22:27.005Z,19.00
2019-05-05T10:26:34.426Z,19.90
2019-05-05T10:30:40.791Z,23.10
2019-05-05T10:34:48.602Z,25.20
2019-05-05T10:38:56.574Z,25.70
2019-05-05T10:43:04.418Z,23.50
2019-05-05T10:47:11.018Z,20.50
2019-05-05T10:51:17.257Z,17.50
2019-05-05T10:55:24.020Z,15.40
2019-05-05T10:59:30.976Z,13.70
2019-05-05T11:03:37.325Z,12.60
2019-05-05T11:07:43.726Z,12.00
2019-05-05T11:11:50.019Z,11.80
2019-05-05T11:15:56.253Z,11.80
2019-05-05T11:20:03.727Z,12.10
2019-05-05T11:24:10.154Z,12.70
2019-05-05T11:28:16.470Z,13.30
2019-05-05T11:32:24.543Z,13.50
2019-05-05T11:36:34.467Z,13.90
2019-05-05T11:40:40.273Z,14.00
2019-05-05T11:44:47.546Z,14.10
2019-05-05T11:48:54.893Z,14.20
2019-05-05T11:53:01.150Z,13.80
2019-05-05T11:57:07.407Z,13.50
2019-05-05T12:01:13.916Z,13.70
2019-05-05T12:05:20.291Z,13.80
2019-05-05T12:09:28.175Z,14.30
2019-05-05T12:13:34.425Z,14.30
2019-05-05T12:17:40.970Z,14.20
2019-05-05T12:21:47.129Z,13.70
2019-05-05T12:25:57.735Z,13.90
2019-05-05T12:30:06.082Z,14.10
2019-05-05T12:34:12.328Z,14.10
2019-05-05T12:38:18.618Z,13.80
2019-05-05T12:42:24.837Z,13.40
2019-05-05T12:46:44.961Z,12.90
2019-05-05T12:50:51.233Z,12.90
2019-05-05T12:54:57.746Z,13.00
2019-05-05T12:59:05.810Z,13.50
2019-05-05T13:03:13.530Z,13.60
2019-05-05T13:07:19.781Z,13.80
2019-05-05T13:11:26.122Z,13.80
2019-05-05T13:15:33.939Z,14.00
2019-05-05T13:19:50.706Z,13.90
2019-05-05T13:23:58.582Z,13.80
2019-05-05T13:28:04.975Z,13.60
2019-05-05T13:32:11.283Z,13.20
2019-05-05T13:36:17.448Z,13.40
2019-05-05T13:40:24.077Z,13.70
2019-05-05T13:44:36.796Z,13.70
2019-05-05T13:48:44.414Z,13.70
2019-05-05T13:52:50.700Z,13.90
2019-05-05T13:56:56.946Z,13.90
2019-05-05T14:01:03.846Z,14.00
2019-05-05T14:05:10.350Z,14.10
2019-05-05T14:09:16.863Z,14.20
2019-05-05T14:13:24.755Z,14.10
2019-05-05T14:17:31.173Z,14.00
2019-05-05T14:21:37.489Z,13.80
2019-05-05T14:25:44.107Z,13.50
2019-05-05T14:29:54.479Z,13.10
2019-05-05T14:34:04.431Z,12.90
2019-05-05T14:38:11.773Z,12.60
2019-05-05T14:42:19.831Z,12.60
2019-05-05T14:46:26.009Z,12.40
2019-05-05T14:50:34.610Z,12.20
2019-05-05T14:54:40.772Z,11.90
2019-05-05T14:58:47.133Z,11.70
2019-05-05T15:02:54.461Z,11.70
2019-05-05T15:07:03.710Z,11.70
2019-05-05T15:11:14.629Z,12.00
2019-05-05T15:15:20.866Z,12.20
2019-05-05T15:19:27.094Z,12.40
2019-05-05T15:23:34.479Z,12.70
2019-05-05T15:27:41.890Z,12.70
2019-05-05T15:31:48.132Z,12.50
2019-05-05T15:35:55.290Z,12.30
2019-05-05T15:40:03.867Z,12.30
2019-05-05T15:44:13.305Z,12.40
2019-05-05T15:48:19.998Z,12.30
2019-05-05T15:52:26.988Z,12.30
2019-05-05T15:56:34.167Z,12.20
2019-05-05T16:00:41.109Z,12.00
2019-05-05T16:04:47.953Z,11.60
2019-05-05T16:08:56.660Z,11.20
2019-05-05T16:13:04.478Z,10.80
2019-05-05T16:17:28.755Z,10.50
2019-05-05T16:21:45.822Z,10.20
2019-05-05T16:25:54.255Z,9.90
2019-05-05T16:30:01.630Z,9.80
2019-05-05T16:34:09.340Z,9.70
2019-05-05T16:38:15.915Z,9.70
2019-05-05T16:42:23.919Z,9.80
2019-05-05T16:46:29.986Z,9.90
2019-05-05T16:50:36.817Z,9.80
2019-05-05T16:54:44.878Z,9.70
2019-05-05T16:58:51.126Z,9.70
2019-05-05T17:02:59.168Z,9.50
2019-05-05T17:07:05.402Z,9.40
2019-05-05T17:11:11.614Z,9.30
2019-05-05T17:15:20.348Z,9.30
2019-05-05T17:19:28.205Z,9.30
2019-05-05T17:23:35.265Z,9.30
2019-05-05T17:27:48.721Z,9.30
2019-05-05T17:31:50.262Z,9.30
2019-05-05T17:35:59.130Z,9.30
2019-05-05T17:40:08.627Z,9.30
2019-05-05T17:44:33.662Z,9.20
2019-05-05T17:48:44.059Z,9.20
2019-05-05T17:52:53.778Z,9.10
2019-05-05T17:57:00.202Z,9.00
2019-05-05T18:01:07.990Z,8.90
2019-05-05T18:05:14.511Z,8.70
2019-05-05T18:09:23.508Z,8.40
2019-05-05T18:13:31.479Z,8.20
2019-05-05T18:17:37.697Z,8.00
2019-05-05T18:21:43.978Z,7.80
2019-05-05T18:25:50.216Z,7.50
2019-05-05T18:29:57.041Z,7.20
2019-05-05T18:34:03.962Z,6.90
2019-05-05T18:38:10.298Z,6.60
2019-05-05T18:42:17.889Z,6.40
2019-05-05T18:46:24.461Z,6.10
2019-05-05T18:50:33.851Z,5.80
2019-05-05T18:54:39.821Z,5.50
2019-05-05T18:58:46.110Z,5.20
2019-05-05T19:02:53.750Z,5.00
2019-05-05T19:07:04.339Z,4.80
2019-05-05T19:11:11.389Z,4.60
2019-05-05T19:15:21.112Z,4.40
2019-05-05T19:19:27.480Z,4.20
2019-05-05T19:23:33.809Z,4.00
2019-05-05T19:27:41.117Z,3.80
2019-05-05T19:31:47.066Z,3.60
2019-05-05T19:35:54.992Z,3.50
2019-05-05T19:40:01.002Z,3.40
2019-05-05T19:44:07.170Z,3.30
2019-05-05T19:48:14.922Z,3.30
2019-05-05T19:52:20.802Z,3.30
2019-05-05T19:56:26.833Z,3.20
2019-05-05T20:00:35.155Z,3.20
2019-05-05T20:04:44.482Z,3.20
2019-05-05T20:08:50.619Z,3.20
2019-05-05T20:12:56.574Z,3.20
2019-05-05T20:17:16.274Z,3.10
2019-05-05T20:21:23.671Z,2.90
2019-05-05T20:25:29.772Z,2.70
2019-05-05T20:29:37.449Z,2.60
2019-05-05T20:33:47.866Z,2.50
2019-05-05T20:37:55.539Z,2.30
2019-05-05T20:42:01.502Z,2.10
2019-05-05T20:46:07.774Z,2.00
2019-05-05T20:50:13.881Z,1.90
2019-05-05T20:54:19.854Z,1.80
2019-05-05T20:58:25.815Z,1.70
2019-05-05T21:02:33.813Z,1.60
2019-05-05T21:06:39.381Z,1.60
2019-05-05T21:10:45.327Z,1.50
2019-05-05T21:14:51.289Z,1.40
2019-05-05T21:18:58.325Z,1.30
2019-05-05T21:23:18.473Z,1.20
2019-05-05T21:27:24.594Z,1.20
2019-05-05T21:31:30.565Z,1.20
2019-05-05T21:35:36.628Z,1.20
2019-05-05T21:39:42.647Z,1.10
2019-05-05T21:43:48.613Z,1.10
2019-05-05T21:47:55.059Z,1.00
2019-05-05T21:52:19.054Z,1.00
2019-05-05T21:56:34.149Z,1.00
2019-05-05T22:00:51.339Z,1.00
2019-05-05T22:04:57.742Z,1.00
2019-05-05T22:09:05.030Z,0.90
2019-05-05T22:13:14.216Z,0.90
2019-05-05T22:17:20.186Z,0.90
2019-05-05T22:21:39.823Z,0.90
2019-05-05T22:25:45.954Z,0.80
2019-05-05T22:29:53.970Z,0.70
2019-05-05T22:33:59.637Z,0.70
2019-05-05T22:38:06.171Z,0.60
2019-05-05T22:42:13.707Z,0.50
2019-05-05T22:46:19.881Z,0.40
2019-05-05T22:50:25.937Z,0.40
2019-05-05T22:54:33.613Z,0.40
2019-05-05T22:58:39.517Z,0.30
2019-05-05T23:02:56.277Z,0.30
2019-05-05T23:07:09.606Z,0.30
2019-05-05T23:11:15.565Z,0.20
2019-05-05T23:15:25.306Z,0.20
2019-05-05T23:19:34.050Z,0.10
2019-05-05T23:23:58.025Z,0.10
2019-05-05T23:28:04.161Z,0.20
2019-05-05T23:32:10.199Z,0.40
2019-05-05T23:36:16.171Z,0.50
2019-05-05T23:40:24.870Z,0.70
2019-05-05T23:44:30.835Z,0.90
2019-05-05T23:48:36.835Z,1.00
2019-05-05T23:52:44.365Z,1.10
2019-05-05T23:56:50.397Z,1.20
